sensor_id;sensor_type;location;lat;lon;timestamp;pressure;altitude;pressure_sealevel;temperature;humidity
81961;BME280;71462;50.650;6.888;2023-08-01T00:01:22;98145.94;;;17.44;65.61
81961;BME280;71462;50.650;6.888;2023-08-01T00:03:25;98134.69;;;17.72;65.07
81961;BME280;71462;50.650;6.888;2023-08-01T00:05:28;98110.16;;;17.88;64.48
81961;BME280;71462;50.650;6.888;2023-08-01T00:07:30;98091.06;;;18.11;63.41
81961;BME280;71462;50.650;6.888;2023-08-01T00:09:34;98080.03;;;18.33;62.93
81961;BME280;71462;50.650;6.888;2023-08-01T00:11:40;98073.56;;;18.45;61.95
81961;BME280;71462;50.650;6.888;2023-08-01T00:13:42;98060.91;;;18.60;61.97
81961;BME280;71462;50.650;6.888;2023-08-01T00:15:45;98023.81;;;18.64;61.47
81961;BME280;71462;50.650;6.888;2023-08-01T00:18:07;98024.56;;;18.64;61.46
81961;BME280;71462;50.650;6.888;2023-08-01T00:20:12;98039.78;;;18.25;62.35
81961;BME280;71462;50.650;6.888;2023-08-01T00:22:15;98069.25;;;18.37;61.85
81961;BME280;71462;50.650;6.888;2023-08-01T00:24:17;98124.03;;;18.23;62.35
81961;BME280;71462;50.650;6.888;2023-08-01T00:26:20;98111.69;;;18.26;61.95
81961;BME280;71462;50.650;6.888;2023-08-01T00:28:24;98107.91;;;18.38;61.99
81961;BME280;71462;50.650;6.888;2023-08-01T00:30:27;98103.38;;;18.52;61.74
81961;BME280;71462;50.650;6.888;2023-08-01T00:32:30;98111.13;;;18.54;61.60
81961;BME280;71462;50.650;6.888;2023-08-01T00:34:33;98108.84;;;18.59;61.72
81961;BME280;71462;50.650;6.888;2023-08-01T00:36:35;98111.22;;;18.68;61.14
81961;BME280;71462;50.650;6.888;2023-08-01T00:38:37;98107.03;;;18.78;60.96
81961;BME280;71462;50.650;6.888;2023-08-01T00:40:40;98099.75;;;18.85;61.02
81961;BME280;71462;50.650;6.888;2023-08-01T00:42:42;98098.63;;;18.90;61.13
81961;BME280;71462;50.650;6.888;2023-08-01T00:44:46;98082.78;;;18.92;61.17
81961;BME280;71462;50.650;6.888;2023-08-01T00:46:50;98083.53;;;18.92;60.93
81961;BME280;71462;50.650;6.888;2023-08-01T00:48:53;98077.75;;;18.94;60.96
81961;BME280;71462;50.650;6.888;2023-08-01T00:51:00;98087.78;;;18.86;61.47
81961;BME280;71462;50.650;6.888;2023-08-01T00:53:03;98091.56;;;18.78;61.80
81961;BME280;71462;50.650;6.888;2023-08-01T00:55:07;98087.97;;;18.63;62.47
81961;BME280;71462;50.650;6.888;2023-08-01T00:57:10;98090.66;;;18.56;61.93
81961;BME280;71462;50.650;6.888;2023-08-01T00:59:13;98078.66;;;18.54;62.50
81961;BME280;71462;50.650;6.888;2023-08-01T01:01:16;98067.91;;;18.68;62.27
81961;BME280;71462;50.650;6.888;2023-08-01T01:03:18;98063.25;;;18.68;62.07
81961;BME280;71462;50.650;6.888;2023-08-01T01:05:23;98064.06;;;18.76;61.81
81961;BME280;71462;50.650;6.888;2023-08-01T01:07:27;98063.38;;;18.83;61.49
81961;BME280;71462;50.650;6.888;2023-08-01T01:09:31;98049.88;;;18.86;61.51
81961;BME280;71462;50.650;6.888;2023-08-01T01:11:33;98036.28;;;18.79;61.72
81961;BME280;71462;50.650;6.888;2023-08-01T01:13:35;98035.97;;;18.91;61.32
81961;BME280;71462;50.650;6.888;2023-08-01T01:15:38;98031.72;;;19.01;61.70
81961;BME280;71462;50.650;6.888;2023-08-01T01:17:41;98029.81;;;19.05;61.24
81961;BME280;71462;50.650;6.888;2023-08-01T01:19:44;98028.72;;;19.17;60.67
81961;BME280;71462;50.650;6.888;2023-08-01T01:21:48;98024.06;;;19.14;61.00
81961;BME280;71462;50.650;6.888;2023-08-01T01:23:52;98022.13;;;19.14;61.14
81961;BME280;71462;50.650;6.888;2023-08-01T01:25:58;98021.75;;;19.16;60.95
81961;BME280;71462;50.650;6.888;2023-08-01T01:28:03;98030.97;;;19.08;61.72
81961;BME280;71462;50.650;6.888;2023-08-01T01:30:07;98020.91;;;19.01;61.22
81961;BME280;71462;50.650;6.888;2023-08-01T01:32:10;98016.16;;;18.77;62.44
81961;BME280;71462;50.650;6.888;2023-08-01T01:34:14;98005.25;;;18.70;62.63
81961;BME280;71462;50.650;6.888;2023-08-01T01:36:16;98011.44;;;18.63;63.39
81961;BME280;71462;50.650;6.888;2023-08-01T01:38:20;98027.44;;;18.93;61.92
81961;BME280;71462;50.650;6.888;2023-08-01T01:40:23;98036.78;;;19.03;61.69
81961;BME280;71462;50.650;6.888;2023-08-01T01:42:25;98042.59;;;19.08;61.52
81961;BME280;71462;50.650;6.888;2023-08-01T01:44:28;98046.75;;;18.84;62.27
81961;BME280;71462;50.650;6.888;2023-08-01T01:46:30;98028.06;;;18.65;63.25
81961;BME280;71462;50.650;6.888;2023-08-01T01:48:33;98033.56;;;18.79;62.91
81961;BME280;71462;50.650;6.888;2023-08-01T01:50:36;98024.72;;;18.86;62.48
81961;BME280;71462;50.650;6.888;2023-08-01T01:52:38;98030.13;;;18.82;62.58
81961;BME280;71462;50.650;6.888;2023-08-01T01:54:42;98019.28;;;18.82;62.65
81961;BME280;71462;50.650;6.888;2023-08-01T01:56:45;98021.25;;;18.92;62.43
81961;BME280;71462;50.650;6.888;2023-08-01T01:58:48;98021.25;;;18.89;62.42
81961;BME280;71462;50.650;6.888;2023-08-01T02:00:50;98027.06;;;18.94;62.13
81961;BME280;71462;50.650;6.888;2023-08-01T02:02:53;98023.63;;;19.05;61.92
81961;BME280;71462;50.650;6.888;2023-08-01T02:04:55;98025.56;;;19.08;61.48
81961;BME280;71462;50.650;6.888;2023-08-01T02:06:57;98017.41;;;19.01;61.91
81961;BME280;71462;50.650;6.888;2023-08-01T02:09:00;98019.38;;;19.04;61.63
81961;BME280;71462;50.650;6.888;2023-08-01T02:11:04;98022.84;;;19.04;61.99
81961;BME280;71462;50.650;6.888;2023-08-01T02:13:06;98020.16;;;19.08;61.41
81961;BME280;71462;50.650;6.888;2023-08-01T02:15:10;98022.06;;;19.07;61.60
81961;BME280;71462;50.650;6.888;2023-08-01T02:17:12;98023.63;;;19.08;61.53
81961;BME280;71462;50.650;6.888;2023-08-01T02:19:15;98024.41;;;19.09;61.71
81961;BME280;71462;50.650;6.888;2023-08-01T02:21:18;98025.59;;;19.11;61.54
81961;BME280;71462;50.650;6.888;2023-08-01T02:23:20;98024.81;;;19.11;61.53
81961;BME280;71462;50.650;6.888;2023-08-01T02:25:23;98023.63;;;19.05;61.80
81961;BME280;71462;50.650;6.888;2023-08-01T02:27:26;98024.00;;;19.00;61.91
81961;BME280;71462;50.650;6.888;2023-08-01T02:29:29;98033.28;;;18.98;61.85
81961;BME280;71462;50.650;6.888;2023-08-01T02:31:31;98035.97;;;18.98;61.71
81961;BME280;71462;50.650;6.888;2023-08-01T02:33:34;98039.09;;;19.04;61.47
81961;BME280;71462;50.650;6.888;2023-08-01T02:35:37;98035.56;;;18.89;62.29
81961;BME280;71462;50.650;6.888;2023-08-01T02:37:39;98042.13;;;18.85;62.40
81961;BME280;71462;50.650;6.888;2023-08-01T02:39:54;98049.97;;;17.98;63.91
81961;BME280;71462;50.650;6.888;2023-08-01T02:41:57;98050.78;;;18.02;63.17
81961;BME280;71462;50.650;6.888;2023-08-01T02:44:02;98057.97;;;17.84;62.86
81961;BME280;71462;50.650;6.888;2023-08-01T02:46:05;98060.31;;;17.85;62.71
81961;BME280;71462;50.650;6.888;2023-08-01T02:48:08;98060.38;;;17.92;62.14
81961;BME280;71462;50.650;6.888;2023-08-01T02:50:13;98062.88;;;17.74;62.10
81961;BME280;71462;50.650;6.888;2023-08-01T02:52:14;98064.56;;;17.86;61.76
81961;BME280;71462;50.650;6.888;2023-08-01T02:54:17;98064.75;;;17.67;62.02
81961;BME280;71462;50.650;6.888;2023-08-01T02:56:19;98064.53;;;17.46;62.59
81961;BME280;71462;50.650;6.888;2023-08-01T02:58:21;98059.91;;;17.46;62.49
81961;BME280;71462;50.650;6.888;2023-08-01T03:00:25;98060.78;;;17.54;62.21
81961;BME280;71462;50.650;6.888;2023-08-01T03:02:28;98066.22;;;17.57;61.91
81961;BME280;71462;50.650;6.888;2023-08-01T03:04:30;98064.19;;;17.47;62.17
81961;BME280;71462;50.650;6.888;2023-08-01T03:06:47;98069.44;;;17.36;62.39
81961;BME280;71462;50.650;6.888;2023-08-01T03:08:49;98071.94;;;17.19;63.04
81961;BME280;71462;50.650;6.888;2023-08-01T03:10:53;98071.66;;;17.27;63.02
81961;BME280;71462;50.650;6.888;2023-08-01T03:12:56;98075.03;;;17.51;62.07
81961;BME280;71462;50.650;6.888;2023-08-01T03:14:59;98080.66;;;17.38;62.16
81961;BME280;71462;50.650;6.888;2023-08-01T03:17:03;98086.91;;;17.46;62.28
81961;BME280;71462;50.650;6.888;2023-08-01T03:19:05;98082.91;;;17.33;61.72
81961;BME280;71462;50.650;6.888;2023-08-01T03:21:09;98094.78;;;17.25;61.79
81961;BME280;71462;50.650;6.888;2023-08-01T03:23:12;98098.91;;;17.15;61.73
81961;BME280;71462;50.650;6.888;2023-08-01T03:25:15;98093.69;;;17.29;60.73
81961;BME280;71462;50.650;6.888;2023-08-01T03:27:18;98100.34;;;17.39;60.38
81961;BME280;71462;50.650;6.888;2023-08-01T03:29:20;98094.47;;;17.30;60.47
81961;BME280;71462;50.650;6.888;2023-08-01T03:31:22;98093.25;;;16.97;60.75
81961;BME280;71462;50.650;6.888;2023-08-01T03:33:26;98091.41;;;17.05;60.46
81961;BME280;71462;50.650;6.888;2023-08-01T03:35:29;98101.69;;;17.22;60.59
81961;BME280;71462;50.650;6.888;2023-08-01T03:37:31;98107.97;;;17.03;60.22
81961;BME280;71462;50.650;6.888;2023-08-01T03:39:34;98101.47;;;17.08;60.71
81961;BME280;71462;50.650;6.888;2023-08-01T03:41:37;98103.34;;;17.04;60.97
81961;BME280;71462;50.650;6.888;2023-08-01T03:43:39;98093.41;;;17.11;61.62
81961;BME280;71462;50.650;6.888;2023-08-01T03:45:41;98084.94;;;17.13;60.49
81961;BME280;71462;50.650;6.888;2023-08-01T03:47:44;98090.88;;;17.22;60.29
81961;BME280;71462;50.650;6.888;2023-08-01T03:49:48;98094.09;;;17.31;60.06
81961;BME280;71462;50.650;6.888;2023-08-01T03:51:51;98087.59;;;17.36;59.80
81961;BME280;71462;50.650;6.888;2023-08-01T03:53:53;98084.47;;;17.34;59.78
81961;BME280;71462;50.650;6.888;2023-08-01T03:56:12;98094.53;;;17.37;59.77
81961;BME280;71462;50.650;6.888;2023-08-01T03:58:15;98108.03;;;17.37;59.68
81961;BME280;71462;50.650;6.888;2023-08-01T04:00:17;98110.34;;;17.35;59.68
81961;BME280;71462;50.650;6.888;2023-08-01T04:02:19;98113.84;;;17.39;59.83
81961;BME280;71462;50.650;6.888;2023-08-01T04:04:22;98110.13;;;17.47;59.48
81961;BME280;71462;50.650;6.888;2023-08-01T04:06:25;98110.13;;;17.47;59.51
81961;BME280;71462;50.650;6.888;2023-08-01T04:08:28;98110.16;;;17.51;59.36
81961;BME280;71462;50.650;6.888;2023-08-01T04:10:34;98112.47;;;17.52;59.59
81961;BME280;71462;50.650;6.888;2023-08-01T04:12:37;98106.72;;;17.54;59.25
81961;BME280;71462;50.650;6.888;2023-08-01T04:14:40;98107.22;;;17.33;59.59
81961;BME280;71462;50.650;6.888;2023-08-01T04:16:43;98108.38;;;17.32;59.82
81961;BME280;71462;50.650;6.888;2023-08-01T04:18:46;98118.84;;;17.37;59.55
81961;BME280;71462;50.650;6.888;2023-08-01T04:20:49;98122.09;;;17.50;59.19
81961;BME280;71462;50.650;6.888;2023-08-01T04:22:55;98123.97;;;17.46;59.40
81961;BME280;71462;50.650;6.888;2023-08-01T04:24:58;98125.19;;;17.48;59.12
81961;BME280;71462;50.650;6.888;2023-08-01T04:27:01;98125.53;;;17.47;59.48
81961;BME280;71462;50.650;6.888;2023-08-01T04:29:04;98132.56;;;17.55;59.07
81961;BME280;71462;50.650;6.888;2023-08-01T04:31:06;98134.91;;;17.56;59.17
81961;BME280;71462;50.650;6.888;2023-08-01T04:33:09;98137.97;;;17.55;59.18
81961;BME280;71462;50.650;6.888;2023-08-01T04:35:12;98137.22;;;17.54;59.29
81961;BME280;71462;50.650;6.888;2023-08-01T04:37:14;98141.00;;;17.50;59.26
81961;BME280;71462;50.650;6.888;2023-08-01T04:39:18;98137.69;;;17.30;59.49
81961;BME280;71462;50.650;6.888;2023-08-01T04:41:21;98148.44;;;17.26;59.59
81961;BME280;71462;50.650;6.888;2023-08-01T04:43:24;98146.81;;;17.22;59.54
81961;BME280;71462;50.650;6.888;2023-08-01T04:45:25;98147.28;;;17.27;59.30
81961;BME280;71462;50.650;6.888;2023-08-01T04:47:28;98153.06;;;17.26;59.57
81961;BME280;71462;50.650;6.888;2023-08-01T04:49:30;98153.06;;;17.26;59.55
81961;BME280;71462;50.650;6.888;2023-08-01T04:51:33;98162.47;;;17.12;60.00
81961;BME280;71462;50.650;6.888;2023-08-01T04:53:36;98158.88;;;17.28;59.72
81961;BME280;71462;50.650;6.888;2023-08-01T04:55:40;98152.38;;;17.32;59.53
81961;BME280;71462;50.650;6.888;2023-08-01T04:57:42;98149.72;;;17.36;59.51
81961;BME280;71462;50.650;6.888;2023-08-01T04:59:45;98153.50;;;17.31;59.78
81961;BME280;71462;50.650;6.888;2023-08-01T05:01:47;98162.09;;;17.40;59.63
81961;BME280;71462;50.650;6.888;2023-08-01T05:03:50;98166.84;;;17.47;59.26
81961;BME280;71462;50.650;6.888;2023-08-01T05:05:53;98165.25;;;17.46;58.85
81961;BME280;71462;50.650;6.888;2023-08-01T05:07:55;98170.31;;;17.48;59.15
81961;BME280;71462;50.650;6.888;2023-08-01T05:09:58;98169.06;;;17.41;58.98
81961;BME280;71462;50.650;6.888;2023-08-01T05:12:02;98167.50;;;17.40;58.97
81961;BME280;71462;50.650;6.888;2023-08-01T05:14:05;98170.22;;;17.40;59.06
81961;BME280;71462;50.650;6.888;2023-08-01T05:16:08;98174.94;;;17.47;58.85
81961;BME280;71462;50.650;6.888;2023-08-01T05:18:13;98180.59;;;17.38;58.57
81961;BME280;71462;50.650;6.888;2023-08-01T05:20:16;98170.16;;;17.37;58.98
81961;BME280;71462;50.650;6.888;2023-08-01T05:22:18;98167.09;;;17.38;58.92
81961;BME280;71462;50.650;6.888;2023-08-01T05:24:23;98172.84;;;17.33;58.82
81961;BME280;71462;50.650;6.888;2023-08-01T05:26:27;98165.41;;;17.27;59.24
81961;BME280;71462;50.650;6.888;2023-08-01T05:28:31;98167.97;;;17.16;59.98
81961;BME280;71462;50.650;6.888;2023-08-01T05:30:34;98164.94;;;16.95;60.63
81961;BME280;71462;50.650;6.888;2023-08-01T05:32:37;98164.03;;;16.84;61.66
81961;BME280;71462;50.650;6.888;2023-08-01T05:34:41;98163.13;;;16.76;61.58
81961;BME280;71462;50.650;6.888;2023-08-01T05:36:44;98159.59;;;16.72;61.32
81961;BME280;71462;50.650;6.888;2023-08-01T05:38:47;98168.47;;;16.99;60.24
81961;BME280;71462;50.650;6.888;2023-08-01T05:40:49;98161.25;;;17.06;59.38
81961;BME280;71462;50.650;6.888;2023-08-01T05:42:52;98171.16;;;16.99;60.06
81961;BME280;71462;50.650;6.888;2023-08-01T05:44:59;98173.25;;;17.09;59.43
81961;BME280;71462;50.650;6.888;2023-08-01T05:47:05;98167.47;;;17.10;58.16
81961;BME280;71462;50.650;6.888;2023-08-01T05:49:08;98167.09;;;17.12;59.26
81961;BME280;71462;50.650;6.888;2023-08-01T05:51:10;98170.25;;;16.88;59.42
81961;BME280;71462;50.650;6.888;2023-08-01T05:53:16;98163.16;;;16.79;60.38
81961;BME280;71462;50.650;6.888;2023-08-01T05:55:22;98175.06;;;17.01;59.67
81961;BME280;71462;50.650;6.888;2023-08-01T05:57:24;98169.25;;;16.99;59.14
81961;BME280;71462;50.650;6.888;2023-08-01T05:59:26;98172.72;;;17.00;59.32
81961;BME280;71462;50.650;6.888;2023-08-01T06:01:30;98172.13;;;16.84;59.30
81961;BME280;71462;50.650;6.888;2023-08-01T06:03:33;98175.00;;;16.98;59.41
81961;BME280;71462;50.650;6.888;2023-08-01T06:05:36;98182.59;;;17.15;59.03
81961;BME280;71462;50.650;6.888;2023-08-01T06:07:39;98181.22;;;17.25;58.60
81961;BME280;71462;50.650;6.888;2023-08-01T06:09:44;98185.88;;;17.28;57.68
81961;BME280;71462;50.650;6.888;2023-08-01T06:11:47;98184.81;;;17.36;57.81
81961;BME280;71462;50.650;6.888;2023-08-01T06:13:50;98187.53;;;17.36;57.53
81961;BME280;71462;50.650;6.888;2023-08-01T06:15:53;98191.16;;;17.47;57.52
81961;BME280;71462;50.650;6.888;2023-08-01T06:17:57;98186.66;;;17.58;56.90
81961;BME280;71462;50.650;6.888;2023-08-01T06:20:00;98189.81;;;17.64;56.37
81961;BME280;71462;50.650;6.888;2023-08-01T06:22:05;98192.50;;;17.64;56.17
81961;BME280;71462;50.650;6.888;2023-08-01T06:24:08;98200.28;;;17.69;56.47
81961;BME280;71462;50.650;6.888;2023-08-01T06:26:11;98206.81;;;17.64;55.90
81961;BME280;71462;50.650;6.888;2023-08-01T06:28:16;98207.81;;;17.83;55.80
81961;BME280;71462;50.650;6.888;2023-08-01T06:30:19;98218.09;;;17.73;55.34
81961;BME280;71462;50.650;6.888;2023-08-01T06:32:22;98205.63;;;17.62;55.77
81961;BME280;71462;50.650;6.888;2023-08-01T06:34:26;98210.31;;;17.68;56.33
81961;BME280;71462;50.650;6.888;2023-08-01T06:36:28;98204.59;;;17.73;56.11
81961;BME280;71462;50.650;6.888;2023-08-01T06:38:31;98210.38;;;17.72;55.85
81961;BME280;71462;50.650;6.888;2023-08-01T06:40:36;98207.25;;;17.70;55.36
81961;BME280;71462;50.650;6.888;2023-08-01T06:42:39;98210.50;;;17.83;55.78
81961;BME280;71462;50.650;6.888;2023-08-01T06:44:45;98211.47;;;18.01;55.77
81961;BME280;71462;50.650;6.888;2023-08-01T06:46:48;98210.97;;;18.22;55.33
81961;BME280;71462;50.650;6.888;2023-08-01T06:48:51;98212.09;;;18.21;56.17
81961;BME280;71462;50.650;6.888;2023-08-01T06:50:55;98217.66;;;18.35;55.96
81961;BME280;71462;50.650;6.888;2023-08-01T06:52:58;98216.09;;;18.34;53.77
81961;BME280;71462;50.650;6.888;2023-08-01T06:55:01;98207.63;;;18.39;54.88
81961;BME280;71462;50.650;6.888;2023-08-01T06:57:05;98207.22;;;18.37;54.69
81961;BME280;71462;50.650;6.888;2023-08-01T06:59:08;98203.97;;;18.17;53.23
81961;BME280;71462;50.650;6.888;2023-08-01T07:01:13;98207.88;;;18.23;53.87
81961;BME280;71462;50.650;6.888;2023-08-01T07:03:18;98209.09;;;18.29;53.96
81961;BME280;71462;50.650;6.888;2023-08-01T07:05:24;98214.03;;;18.20;53.60
81961;BME280;71462;50.650;6.888;2023-08-01T07:07:27;98215.44;;;18.07;54.80
81961;BME280;71462;50.650;6.888;2023-08-01T07:09:30;98223.63;;;18.14;55.29
81961;BME280;71462;50.650;6.888;2023-08-01T07:11:32;98225.50;;;18.10;54.04
81961;BME280;71462;50.650;6.888;2023-08-01T07:13:34;98224.19;;;17.97;54.10
81961;BME280;71462;50.650;6.888;2023-08-01T07:15:37;98235.44;;;18.02;56.25
81961;BME280;71462;50.650;6.888;2023-08-01T07:17:42;98232.84;;;18.10;55.88
81961;BME280;71462;50.650;6.888;2023-08-01T07:19:45;98230.72;;;17.96;56.98
81961;BME280;71462;50.650;6.888;2023-08-01T07:21:49;98228.03;;;17.96;57.55
81961;BME280;71462;50.650;6.888;2023-08-01T07:23:53;98231.66;;;18.07;57.81
81961;BME280;71462;50.650;6.888;2023-08-01T07:25:55;98240.31;;;17.90;57.52
81961;BME280;71462;50.650;6.888;2023-08-01T07:27:57;98254.38;;;18.02;57.07
81961;BME280;71462;50.650;6.888;2023-08-01T07:30:00;98240.38;;;17.93;56.60
81961;BME280;71462;50.650;6.888;2023-08-01T07:32:03;98253.50;;;17.95;57.44
81961;BME280;71462;50.650;6.888;2023-08-01T07:34:06;98250.72;;;17.88;57.53
81961;BME280;71462;50.650;6.888;2023-08-01T07:38:30;98252.50;;;18.07;56.97
81961;BME280;71462;50.650;6.888;2023-08-01T07:40:37;98251.88;;;18.17;57.80
81961;BME280;71462;50.650;6.888;2023-08-01T07:42:40;98258.94;;;18.28;57.22
81961;BME280;71462;50.650;6.888;2023-08-01T07:44:42;98254.66;;;18.24;57.74
81961;BME280;71462;50.650;6.888;2023-08-01T07:46:48;98253.13;;;18.26;57.12
81961;BME280;71462;50.650;6.888;2023-08-01T07:48:50;98255.41;;;18.24;57.42
81961;BME280;71462;50.650;6.888;2023-08-01T07:50:55;98255.97;;;18.41;56.99
81961;BME280;71462;50.650;6.888;2023-08-01T07:52:58;98251.44;;;18.52;56.67
81961;BME280;71462;50.650;6.888;2023-08-01T07:55:00;98257.72;;;18.63;56.42
81961;BME280;71462;50.650;6.888;2023-08-01T07:57:05;98258.09;;;18.61;56.08
81961;BME280;71462;50.650;6.888;2023-08-01T07:59:07;98253.34;;;18.48;55.21
81961;BME280;71462;50.650;6.888;2023-08-01T08:01:11;98249.25;;;18.24;53.99
81961;BME280;71462;50.650;6.888;2023-08-01T08:03:14;98261.16;;;18.19;54.92
81961;BME280;71462;50.650;6.888;2023-08-01T08:05:17;98249.28;;;18.27;54.03
81961;BME280;71462;50.650;6.888;2023-08-01T08:07:21;98256.28;;;18.32;53.27
81961;BME280;71462;50.650;6.888;2023-08-01T08:09:24;98253.84;;;18.20;52.62
81961;BME280;71462;50.650;6.888;2023-08-01T08:11:26;98259.50;;;18.11;51.50
81961;BME280;71462;50.650;6.888;2023-08-01T08:13:32;98257.84;;;18.03;52.25
81961;BME280;71462;50.650;6.888;2023-08-01T08:15:34;98255.38;;;18.21;52.91
81961;BME280;71462;50.650;6.888;2023-08-01T08:17:38;98264.28;;;18.21;52.25
81961;BME280;71462;50.650;6.888;2023-08-01T08:19:41;98263.38;;;18.10;53.31
81961;BME280;71462;50.650;6.888;2023-08-01T08:21:43;98264.75;;;17.97;51.68
81961;BME280;71462;50.650;6.888;2023-08-01T08:23:47;98262.44;;;17.99;52.00
81961;BME280;71462;50.650;6.888;2023-08-01T08:25:54;98267.31;;;18.16;51.41
81961;BME280;71462;50.650;6.888;2023-08-01T08:27:57;98271.78;;;18.39;50.90
81961;BME280;71462;50.650;6.888;2023-08-01T08:30:01;98267.25;;;18.46;50.15
81961;BME280;71462;50.650;6.888;2023-08-01T08:32:06;98270.28;;;18.41;50.80
81961;BME280;71462;50.650;6.888;2023-08-01T08:34:09;98266.97;;;18.58;51.58
81961;BME280;71462;50.650;6.888;2023-08-01T08:36:13;98265.59;;;18.38;50.11
81961;BME280;71462;50.650;6.888;2023-08-01T08:38:16;98264.56;;;18.46;50.46
81961;BME280;71462;50.650;6.888;2023-08-01T08:40:19;98271.81;;;18.42;50.54
81961;BME280;71462;50.650;6.888;2023-08-01T08:42:22;98269.41;;;18.33;50.64
81961;BME280;71462;50.650;6.888;2023-08-01T08:44:25;98271.59;;;18.17;51.29
81961;BME280;71462;50.650;6.888;2023-08-01T08:46:33;98273.53;;;18.20;50.58
81961;BME280;71462;50.650;6.888;2023-08-01T08:48:39;98277.66;;;18.11;50.81
81961;BME280;71462;50.650;6.888;2023-08-01T08:50:42;98267.72;;;17.88;52.08
81961;BME280;71462;50.650;6.888;2023-08-01T08:52:45;98272.97;;;18.04;51.49
81961;BME280;71462;50.650;6.888;2023-08-01T08:54:49;98278.53;;;18.18;51.67
81961;BME280;71462;50.650;6.888;2023-08-01T08:56:52;98266.94;;;18.18;51.48
81961;BME280;71462;50.650;6.888;2023-08-01T08:58:55;98283.56;;;18.53;51.70
81961;BME280;71462;50.650;6.888;2023-08-01T09:01:00;98274.41;;;18.68;51.74
81961;BME280;71462;50.650;6.888;2023-08-01T09:03:04;98277.66;;;18.81;50.90
81961;BME280;71462;50.650;6.888;2023-08-01T09:05:07;98278.06;;;18.83;50.05
81961;BME280;71462;50.650;6.888;2023-08-01T09:07:10;98283.22;;;19.03;49.47
81961;BME280;71462;50.650;6.888;2023-08-01T09:09:15;98276.56;;;18.89;48.73
81961;BME280;71462;50.650;6.888;2023-08-01T09:11:18;98280.28;;;19.18;49.79
81961;BME280;71462;50.650;6.888;2023-08-01T09:13:21;98271.81;;;19.27;48.83
81961;BME280;71462;50.650;6.888;2023-08-01T09:15:25;98277.97;;;19.20;48.68
81961;BME280;71462;50.650;6.888;2023-08-01T09:17:35;98277.56;;;19.18;48.32
81961;BME280;71462;50.650;6.888;2023-08-01T09:19:41;98285.16;;;18.98;48.22
81961;BME280;71462;50.650;6.888;2023-08-01T09:21:46;98272.09;;;19.11;47.63
81961;BME280;71462;50.650;6.888;2023-08-01T09:23:51;98275.63;;;19.19;48.09
81961;BME280;71462;50.650;6.888;2023-08-01T09:25:54;98295.84;;;19.32;49.49
81961;BME280;71462;50.650;6.888;2023-08-01T09:28:00;98284.75;;;19.51;48.52
81961;BME280;71462;50.650;6.888;2023-08-01T09:30:08;98289.13;;;19.70;49.04
81961;BME280;71462;50.650;6.888;2023-08-01T09:32:12;98282.50;;;19.61;48.06
81961;BME280;71462;50.650;6.888;2023-08-01T09:34:22;98293.09;;;19.25;46.63
81961;BME280;71462;50.650;6.888;2023-08-01T09:36:26;98278.34;;;19.19;47.07
81961;BME280;71462;50.650;6.888;2023-08-01T09:38:33;98301.25;;;19.32;48.28
81961;BME280;71462;50.650;6.888;2023-08-01T09:40:36;98301.88;;;19.63;46.19
81961;BME280;71462;50.650;6.888;2023-08-01T09:42:40;98295.78;;;19.76;46.26
81961;BME280;71462;50.650;6.888;2023-08-01T09:44:44;98294.91;;;19.62;47.26
81961;BME280;71462;50.650;6.888;2023-08-01T09:46:55;98302.44;;;20.00;46.86
81961;BME280;71462;50.650;6.888;2023-08-01T09:49:06;98304.69;;;19.80;46.87
81961;BME280;71462;50.650;6.888;2023-08-01T09:51:11;98321.25;;;19.61;49.09
81961;BME280;71462;50.650;6.888;2023-08-01T09:53:15;98317.75;;;19.61;50.63
81961;BME280;71462;50.650;6.888;2023-08-01T09:55:19;98316.88;;;19.46;52.49
81961;BME280;71462;50.650;6.888;2023-08-01T09:57:28;98316.00;;;19.35;51.29
81961;BME280;71462;50.650;6.888;2023-08-01T09:59:31;98320.13;;;19.18;50.84
81961;BME280;71462;50.650;6.888;2023-08-01T10:01:35;98315.22;;;19.38;51.36
81961;BME280;71462;50.650;6.888;2023-08-01T10:03:39;98310.00;;;19.63;53.27
81961;BME280;71462;50.650;6.888;2023-08-01T10:05:45;98310.97;;;19.99;51.05
81961;BME280;71462;50.650;6.888;2023-08-01T10:07:49;98306.03;;;20.22;50.46
81961;BME280;71462;50.650;6.888;2023-08-01T10:09:54;98297.88;;;20.18;48.06
81961;BME280;71462;50.650;6.888;2023-08-01T10:11:57;98294.50;;;20.39;47.40
81961;BME280;71462;50.650;6.888;2023-08-01T10:14:02;98307.56;;;20.19;47.97
81961;BME280;71462;50.650;6.888;2023-08-01T10:16:06;98309.13;;;20.17;46.64
81961;BME280;71462;50.650;6.888;2023-08-01T10:18:08;98316.50;;;20.16;46.20
81961;BME280;71462;50.650;6.888;2023-08-01T10:20:11;98310.16;;;19.87;47.05
81961;BME280;71462;50.650;6.888;2023-08-01T10:22:15;98318.44;;;20.19;48.70
81961;BME280;71462;50.650;6.888;2023-08-01T10:24:19;98321.50;;;20.07;50.22
81961;BME280;71462;50.650;6.888;2023-08-01T10:26:23;98329.81;;;19.74;51.09
81961;BME280;71462;50.650;6.888;2023-08-01T10:28:32;98324.16;;;19.38;52.54
81961;BME280;71462;50.650;6.888;2023-08-01T10:30:37;98309.53;;;19.53;51.80
81961;BME280;71462;50.650;6.888;2023-08-01T10:32:40;98319.22;;;19.54;52.22
81961;BME280;71462;50.650;6.888;2023-08-01T10:34:50;98320.38;;;19.50;52.76
81961;BME280;71462;50.650;6.888;2023-08-01T10:36:54;98321.22;;;19.57;54.38
81961;BME280;71462;50.650;6.888;2023-08-01T10:38:57;98315.50;;;19.73;53.47
81961;BME280;71462;50.650;6.888;2023-08-01T10:41:00;98315.50;;;19.73;52.15
81961;BME280;71462;50.650;6.888;2023-08-01T10:43:04;98312.94;;;19.40;53.54
81961;BME280;71462;50.650;6.888;2023-08-01T10:45:18;98308.47;;;19.65;52.51
81961;BME280;71462;50.650;6.888;2023-08-01T10:47:25;98304.72;;;19.84;53.60
81961;BME280;71462;50.650;6.888;2023-08-01T10:49:36;98306.34;;;20.06;51.23
81961;BME280;71462;50.650;6.888;2023-08-01T10:51:38;98307.94;;;20.14;50.76
81961;BME280;71462;50.650;6.888;2023-08-01T10:53:42;98309.06;;;20.03;51.07
81961;BME280;71462;50.650;6.888;2023-08-01T10:55:45;98304.84;;;20.09;51.10
81961;BME280;71462;50.650;6.888;2023-08-01T10:57:49;98305.31;;;20.29;49.75